createdAt,value
2023-05-20T00:00:26.506Z,101141.71
2023-05-20T00:04:48.388Z,101142.70
2023-05-20T00:08:50.912Z,101137.64
2023-05-20T00:12:53.404Z,101137.08
2023-05-20T00:16:56.835Z,101139.96
2023-05-20T00:21:00.610Z,101137.50
2023-05-20T00:25:02.755Z,101136.61
2023-05-20T00:29:05.065Z,101133.14
2023-05-20T00:33:07.972Z,101134.20
2023-05-20T00:37:12.148Z,101129.50
2023-05-20T00:41:14.920Z,101125.11
2023-05-20T00:45:18.954Z,101122.13
2023-05-20T00:49:23.537Z,101118.84
2023-05-20T00:53:26.727Z,101123.40
2023-05-20T00:57:30.766Z,101126.27
2023-05-20T01:01:34.162Z,101124.86
2023-05-20T01:05:41.394Z,101116.44
2023-05-20T01:09:45.374Z,101122.02
2023-05-20T01:13:55.085Z,101118.83
2023-05-20T01:18:02.408Z,101122.08
2023-05-20T01:22:07.975Z,101124.25
2023-05-20T01:26:14.504Z,101125.91
2023-05-20T01:30:18.388Z,101125.77
2023-05-20T01:34:25.940Z,101126.98
2023-05-20T01:38:29.933Z,101132.48
2023-05-20T01:42:34.922Z,101129.20
2023-05-20T01:46:40.491Z,101131.99
2023-05-20T01:50:44.490Z,101134.12
2023-05-20T01:54:51.395Z,101128.12
2023-05-20T01:58:56.363Z,101129.90
2023-05-20T02:02:59.568Z,101128.63
2023-05-20T02:07:03.010Z,101126.52
2023-05-20T02:11:05.757Z,101126.92
2023-05-20T02:15:08.472Z,101121.41
2023-05-20T02:19:13.168Z,101116.26
2023-05-20T02:23:15.780Z,101117.83
2023-05-20T02:27:17.777Z,101123.30
2023-05-20T02:31:22.319Z,101120.14
2023-05-20T02:35:25.297Z,101118.73
2023-05-20T02:39:31.332Z,101121.66
2023-05-20T02:43:38.912Z,101119.97
2023-05-20T02:47:41.451Z,101123.70
2023-05-20T02:51:46.816Z,101124.96
2023-05-20T02:55:50.687Z,101127.75
2023-05-20T02:59:53.469Z,101129.06
2023-05-20T03:03:56.152Z,101128.44
2023-05-20T03:08:00.989Z,101125.98
2023-05-20T03:12:03.602Z,101124.68
2023-05-20T03:16:06.959Z,101123.51
2023-05-20T03:20:13.606Z,101125.51
2023-05-20T03:24:16.531Z,101127.67
2023-05-20T03:28:19.568Z,101129.18
2023-05-20T03:32:23.922Z,101136.73
2023-05-20T03:36:27.805Z,101135.65
2023-05-20T03:40:35.120Z,101139.59
2023-05-20T03:45:06.882Z,101138.92
2023-05-20T03:49:15.320Z,101138.99
2023-05-20T03:53:20.258Z,101139.77
2023-05-20T03:57:24.367Z,101140.98
2023-05-20T04:01:26.966Z,101143.61
2023-05-20T04:05:37.107Z,101143.79
2023-05-20T04:09:46.065Z,101141.09
2023-05-20T04:13:49.871Z,101141.92
2023-05-20T04:17:55.491Z,101140.12
2023-05-20T04:21:58.944Z,101144.36
2023-05-20T04:26:08.991Z,101147.08
2023-05-20T04:30:17.648Z,101144.98
2023-05-20T04:34:26.985Z,101144.92
2023-05-20T04:38:33.297Z,101139.08
2023-05-20T04:42:37.283Z,101139.13
2023-05-20T04:46:42.536Z,101136.42
2023-05-20T04:50:45.652Z,101138.44
2023-05-20T04:54:48.192Z,101138.73
2023-05-20T04:58:51.414Z,101136.77
2023-05-20T05:02:56.139Z,101136.56
2023-05-20T05:06:59.841Z,101135.56
2023-05-20T05:11:01.929Z,101135.64
2023-05-20T05:15:04.597Z,101135.75
2023-05-20T05:19:09.915Z,101133.74
2023-05-20T05:23:14.511Z,101134.69
2023-05-20T05:27:17.452Z,101136.09
2023-05-20T05:31:19.379Z,101132.38
2023-05-20T05:35:22.089Z,101133.60
2023-05-20T05:39:25.773Z,101132.67
2023-05-20T05:43:28.534Z,101135.56
2023-05-20T05:47:32.526Z,101136.59
2023-05-20T05:51:38.224Z,101134.11
2023-05-20T05:55:42.318Z,101131.42
2023-05-20T05:59:46.515Z,101131.07
2023-05-20T06:03:52.442Z,101137.24
2023-05-20T06:07:57.641Z,101141.02
2023-05-20T06:12:03.901Z,101144.55
2023-05-20T06:16:08.380Z,101146.17
2023-05-20T06:20:11.704Z,101146.13
2023-05-20T06:24:16.113Z,101142.44
2023-05-20T06:28:22.096Z,101141.13
2023-05-20T06:32:25.062Z,101142.02
2023-05-20T06:36:28.698Z,101143.49
2023-05-20T06:40:32.467Z,101138.09
2023-05-20T06:44:34.723Z,101137.92
2023-05-20T06:48:50.106Z,101139.02
2023-05-20T06:52:57.075Z,101138.08
2023-05-20T06:57:02.840Z,101134.53
2023-05-20T07:01:17.251Z,101139.81
2023-05-20T07:05:24.783Z,101140.33
2023-05-20T07:09:27.820Z,101137.23
2023-05-20T07:13:31.009Z,101140.02
2023-05-20T07:17:37.761Z,101138.39
2023-05-20T07:21:41.564Z,101133.60
2023-05-20T07:25:58.830Z,101132.34
2023-05-20T07:30:01.902Z,101128.05
2023-05-20T07:34:08.083Z,101124.86
2023-05-20T07:38:13.353Z,101123.20
2023-05-20T07:42:17.122Z,101119.38
2023-05-20T07:46:22.751Z,101116.23
2023-05-20T07:50:25.910Z,101115.23
2023-05-20T07:54:28.653Z,101109.27
2023-05-20T07:58:33.359Z,101110.25
2023-05-20T08:02:36.930Z,101107.28
2023-05-20T08:06:44.877Z,101103.43
2023-05-20T08:10:53.660Z,101104.56
2023-05-20T08:14:57.557Z,101099.98
2023-05-20T08:19:00.312Z,101101.11
2023-05-20T08:23:03.420Z,101097.98
2023-05-20T08:27:07.751Z,101095.85
2023-05-20T08:31:12.313Z,101099.34
2023-05-20T08:35:16.636Z,101097.02
2023-05-20T08:39:21.175Z,101097.58
2023-05-20T08:43:25.857Z,101094.89
2023-05-20T08:47:34.557Z,101090.54
2023-05-20T08:51:38.551Z,101090.22
2023-05-20T08:55:48.704Z,101086.88
2023-05-20T08:59:52.499Z,101084.42
2023-05-20T09:03:55.073Z,101089.13
2023-05-20T09:08:11.502Z,101085.48
2023-05-20T09:12:15.944Z,101083.25
2023-05-20T09:16:24.361Z,101085.39
2023-05-20T09:20:26.464Z,101081.55
2023-05-20T09:24:28.765Z,101086.04
2023-05-20T09:28:31.284Z,101088.77
2023-05-20T09:32:33.669Z,101089.73
2023-05-20T09:36:39.698Z,101085.12
2023-05-20T09:40:46.232Z,101079.17
2023-05-20T09:44:51.449Z,101079.36
2023-05-20T09:48:53.805Z,101078.61
2023-05-20T09:52:56.913Z,101079.47
2023-05-20T09:57:00.272Z,101074.46
2023-05-20T10:01:02.726Z,101075.42
2023-05-20T10:05:11.871Z,101070.36
2023-05-20T10:09:36.839Z,101072.70
2023-05-20T10:14:09.773Z,101068.27
2023-05-20T10:18:44.461Z,101063.27
2023-05-20T10:23:03.126Z,101064.20
2023-05-20T10:27:14.867Z,101059.33
2023-05-20T10:31:54.430Z,101059.80
2023-05-20T10:36:05.380Z,101054.41
2023-05-20T10:40:15.252Z,101055.02
2023-05-20T10:44:18.281Z,101051.16
2023-05-20T10:48:34.981Z,101052.69
2023-05-20T10:52:38.396Z,101049.60
2023-05-20T10:56:52.483Z,101045.89
2023-05-20T11:01:05.262Z,101039.56
2023-05-20T11:05:15.078Z,101034.27
2023-05-20T11:09:24.002Z,101029.98
2023-05-20T11:13:27.809Z,101024.30
2023-05-20T11:17:38.268Z,101019.30
2023-05-20T11:21:48.604Z,101012.28
2023-05-20T11:25:53.444Z,101013.04
2023-05-20T11:29:57.354Z,101012.29
2023-05-20T11:34:04.522Z,101010.36
2023-05-20T11:38:09.947Z,101008.59
2023-05-20T11:42:14.440Z,101007.48
2023-05-20T11:46:22.382Z,101004.42
2023-05-20T11:50:25.066Z,101008.61
2023-05-20T11:54:28.391Z,101001.66
2023-05-20T11:58:33.394Z,100996.04
2023-05-20T12:02:36.363Z,100994.61
2023-05-20T12:06:42.401Z,101000.79
2023-05-20T12:10:44.913Z,101002.98
2023-05-20T12:14:47.991Z,100998.64
2023-05-20T12:18:51.286Z,101000.67
2023-05-20T12:22:54.122Z,100995.84
2023-05-20T12:26:57.378Z,100991.20
2023-05-20T12:30:59.385Z,100986.70
2023-05-20T12:35:01.355Z,100984.98
2023-05-20T12:39:04.986Z,100984.73
2023-05-20T12:43:07.458Z,100982.30
2023-05-20T12:47:10.400Z,100978.19
2023-05-20T12:51:13.174Z,100972.55
2023-05-20T12:55:16.147Z,100967.45
2023-05-20T12:59:18.586Z,100963.11
2023-05-20T13:03:20.819Z,100956.57
2023-05-20T13:07:23.041Z,100953.77
2023-05-20T13:11:25.118Z,100952.05
2023-05-20T13:15:27.666Z,100948.30
2023-05-20T13:19:30.165Z,100950.73
2023-05-20T13:23:32.470Z,100950.89
2023-05-20T13:27:34.954Z,100941.63
2023-05-20T13:31:36.994Z,100941.08
2023-05-20T13:35:39.180Z,100939.20
2023-05-20T13:39:41.244Z,100934.39
2023-05-20T13:43:43.326Z,100933.83
2023-05-20T13:47:46.058Z,100927.23
2023-05-20T13:51:48.419Z,100927.00
2023-05-20T13:55:50.875Z,100934.70
2023-05-20T13:59:53.113Z,100931.48
2023-05-20T14:03:55.591Z,100923.64
2023-05-20T14:07:59.063Z,100925.93
2023-05-20T14:12:01.156Z,100916.77
2023-05-20T14:16:03.887Z,100913.52
2023-05-20T14:20:08.005Z,100911.73
2023-05-20T14:24:11.293Z,100911.02
2023-05-20T14:28:13.455Z,100912.41
2023-05-20T14:32:15.452Z,100907.73
2023-05-20T14:36:17.751Z,100903.96
2023-05-20T14:40:20.233Z,100906.80
2023-05-20T14:44:22.287Z,100904.66
2023-05-20T14:48:24.286Z,100905.44
2023-05-20T14:52:26.359Z,100906.21
2023-05-20T14:56:28.459Z,100902.76
2023-05-20T15:00:32.251Z,100902.94
2023-05-20T15:04:34.764Z,100893.88
2023-05-20T15:08:36.772Z,100892.91
2023-05-20T15:12:39.965Z,100893.30
2023-05-20T15:16:43.984Z,100894.41
2023-05-20T15:20:46.082Z,100887.62
2023-05-20T15:24:48.154Z,100887.69
2023-05-20T15:28:50.405Z,100886.70
2023-05-20T15:32:52.514Z,100881.77
2023-05-20T15:36:54.582Z,100887.41
2023-05-20T15:40:56.737Z,100884.54
2023-05-20T15:44:59.473Z,100882.94
2023-05-20T15:49:01.609Z,100870.44
2023-05-20T15:53:08.265Z,100869.54
2023-05-20T15:57:10.337Z,100866.61
2023-05-20T16:01:12.401Z,100863.58
2023-05-20T16:05:14.546Z,100868.39
2023-05-20T16:09:16.629Z,100867.63
2023-05-20T16:13:18.814Z,100866.56
2023-05-20T16:17:21.388Z,100863.61
2023-05-20T16:21:24.692Z,100864.59
2023-05-20T16:25:26.713Z,100869.48
2023-05-20T16:29:28.784Z,100875.37
2023-05-20T16:33:30.950Z,100874.17
2023-05-20T16:37:33.751Z,100880.28
2023-05-20T16:41:35.996Z,100876.20
2023-05-20T16:45:38.207Z,100881.47
2023-05-20T16:49:40.849Z,100884.05
2023-05-20T16:54:36.768Z,100885.26
2023-05-20T16:58:38.855Z,100887.45
2023-05-20T17:02:40.927Z,100892.09
2023-05-20T17:06:43.143Z,100893.16
2023-05-20T17:10:45.357Z,100896.27
2023-05-20T17:14:47.443Z,100900.67
2023-05-20T17:18:49.462Z,100903.91
2023-05-20T17:22:53.906Z,100896.69
2023-05-20T17:26:56.325Z,100899.81
2023-05-20T17:30:59.393Z,100897.36
2023-05-20T17:35:01.631Z,100893.99
2023-05-20T17:39:04.385Z,100891.98
2023-05-20T17:43:06.382Z,100893.73
2023-05-20T17:47:09.970Z,100896.31
2023-05-20T17:51:12.058Z,100894.70
2023-05-20T17:55:14.217Z,100893.95
2023-05-20T17:59:18.175Z,100894.46
2023-05-20T18:03:20.546Z,100896.67
2023-05-20T18:07:22.822Z,100894.86
2023-05-20T18:11:27.218Z,100900.54
2023-05-20T18:15:30.131Z,100900.03
2023-05-20T18:19:33.412Z,100906.14
2023-05-20T18:23:36.481Z,100905.90
2023-05-20T18:27:40.740Z,100906.84
2023-05-20T18:31:43.616Z,100909.88
2023-05-20T18:35:46.191Z,100915.57
2023-05-20T18:39:48.301Z,100913.69
2023-05-20T18:43:50.495Z,100910.55
2023-05-20T18:47:54.242Z,100914.20
2023-05-20T18:51:56.419Z,100909.81
2023-05-20T18:56:02.606Z,100911.84
2023-05-20T19:00:10.246Z,100912.45
2023-05-20T19:04:13.431Z,100911.80
2023-05-20T19:08:15.465Z,100910.65
2023-05-20T19:12:18.498Z,100911.02
2023-05-20T19:16:23.014Z,100913.60
2023-05-20T19:20:26.247Z,100920.67
2023-05-20T19:24:31.393Z,100919.25
2023-05-20T19:28:34.478Z,100915.77
2023-05-20T19:32:36.873Z,100910.91
2023-05-20T19:36:42.424Z,100916.20
2023-05-20T19:40:45.175Z,100915.10
2023-05-20T19:44:48.890Z,100910.82
2023-05-20T19:48:50.950Z,100909.60
2023-05-20T19:52:53.712Z,100908.54
2023-05-20T19:56:56.561Z,100903.48
2023-05-20T20:00:59.587Z,100901.69
2023-05-20T20:05:04.257Z,100900.98
2023-05-20T20:09:06.280Z,100899.55
2023-05-20T20:13:08.885Z,100909.61
2023-05-20T20:17:15.193Z,100911.49
2023-05-20T20:21:18.118Z,100916.06
2023-05-20T20:25:20.228Z,100919.71
2023-05-20T20:29:22.399Z,100916.10
2023-05-20T20:33:25.233Z,100917.30
2023-05-20T20:37:27.227Z,100917.09
2023-05-20T20:41:38.281Z,100915.43
2023-05-20T20:45:41.365Z,100918.43
2023-05-20T20:49:43.457Z,100912.39
2023-05-20T20:53:47.886Z,100912.79
2023-05-20T20:57:50.866Z,100911.76
2023-05-20T21:01:54.361Z,100912.87
2023-05-20T21:05:57.435Z,100910.02
2023-05-20T21:10:00.018Z,100914.42
2023-05-20T21:14:02.034Z,100914.98
2023-05-20T21:18:04.825Z,100915.66
2023-05-20T21:22:08.956Z,100916.64
2023-05-20T21:26:11.677Z,100909.14
2023-05-20T21:30:16.057Z,100907.94
2023-05-20T21:34:19.482Z,100908.55
2023-05-20T21:38:21.472Z,100907.23
2023-05-20T21:42:24.511Z,100906.96
2023-05-20T21:46:30.230Z,100904.80
2023-05-20T21:50:32.424Z,100908.37
2023-05-20T21:54:34.568Z,100904.99
2023-05-20T21:58:40.461Z,100905.70
2023-05-20T22:02:42.510Z,100900.90
2023-05-20T22:06:44.706Z,100902.73
2023-05-20T22:10:49.016Z,100903.45
2023-05-20T22:14:51.779Z,100903.05
2023-05-20T22:18:54.083Z,100903.85
2023-05-20T22:22:56.345Z,100901.94
2023-05-20T22:26:58.491Z,100902.34
2023-05-20T22:31:02.191Z,100902.92
2023-05-20T22:35:06.864Z,100901.81
2023-05-20T22:39:12.801Z,100902.99
2023-05-20T22:43:16.670Z,100901.23
2023-05-20T22:47:20.803Z,100896.78
2023-05-20T22:51:24.209Z,100891.95
2023-05-20T22:55:26.918Z,100890.28
2023-05-20T22:59:33.783Z,100886.48
2023-05-20T23:03:36.909Z,100889.04
2023-05-20T23:07:40.117Z,100894.36
2023-05-20T23:11:43.096Z,100889.12
2023-05-20T23:15:49.079Z,100886.52
2023-05-20T23:19:54.520Z,100885.79
2023-05-20T23:23:57.233Z,100882.59
2023-05-20T23:28:01.109Z,100882.48
2023-05-20T23:32:04.316Z,100880.73
2023-05-20T23:36:09.403Z,100882.77
2023-05-20T23:40:14.738Z,100879.98
2023-05-20T23:44:17.725Z,100879.52
2023-05-20T23:48:21.568Z,100886.11
2023-05-20T23:52:26.372Z,100883.02
2023-05-20T23:56:28.781Z,100886.02
